createdAt,value
2022-09-03T00:02:36.563Z,100749.19
2022-09-03T00:05:29.956Z,100747.19
2022-09-03T00:08:06.618Z,100741.58
2022-09-03T00:10:50.557Z,100741.19
2022-09-03T00:13:23.168Z,100742.13
2022-09-03T00:15:54.631Z,100740.66
2022-09-03T00:18:28.282Z,100743.20
2022-09-03T00:20:58.718Z,100735.85
2022-09-03T00:23:30.477Z,100735.58
2022-09-03T00:26:17.499Z,100734.83
2022-09-03T00:28:51.343Z,100735.14
2022-09-03T00:31:42.817Z,100732.45
2022-09-03T00:34:29.011Z,100734.55
2022-09-03T00:36:57.370Z,100733.49
2022-09-03T00:39:27.010Z,100732.84
2022-09-03T00:42:07.868Z,100734.20
2022-09-03T00:44:55.112Z,100735.15
2022-09-03T00:47:45.085Z,100733.67
2022-09-03T00:50:52.287Z,100729.66
2022-09-03T00:53:52.007Z,100728.41
2022-09-03T00:56:31.307Z,100726.72
2022-09-03T00:59:13.322Z,100726.16
2022-09-03T01:02:02.639Z,100727.28
2022-09-03T01:04:33.289Z,100726.62
2022-09-03T01:07:33.230Z,100726.60
2022-09-03T01:10:16.834Z,100726.60
2022-09-03T01:13:00.318Z,100730.17
2022-09-03T01:15:57.290Z,100727.27
2022-09-03T01:18:48.678Z,100729.98
2022-09-03T01:21:38.935Z,100730.36
2022-09-03T01:24:32.298Z,100729.56
2022-09-03T01:27:32.133Z,100724.25
2022-09-03T01:30:10.746Z,100728.14
2022-09-03T01:32:55.206Z,100727.98
2022-09-03T01:35:34.954Z,100726.05
2022-09-03T01:38:25.952Z,100727.88
2022-09-03T01:41:42.573Z,100724.86
2022-09-03T01:44:40.237Z,100724.17
2022-09-03T01:47:40.057Z,100721.78
2022-09-03T01:50:23.356Z,100723.61
2022-09-03T01:53:07.023Z,100721.51
2022-09-03T01:55:51.578Z,100720.59
2022-09-03T01:58:27.305Z,100719.20
2022-09-03T02:01:01.954Z,100717.85
2022-09-03T02:03:40.888Z,100719.95
2022-09-03T02:06:11.587Z,100716.00
2022-09-03T02:08:40.103Z,100713.44
2022-09-03T02:11:09.762Z,100717.27
2022-09-03T02:13:49.769Z,100717.06
2022-09-03T02:16:21.719Z,100714.64
2022-09-03T02:18:54.293Z,100705.06
2022-09-03T02:21:25.226Z,100707.09
2022-09-03T02:23:53.058Z,100704.39
2022-09-03T02:26:24.138Z,100703.10
2022-09-03T02:28:54.457Z,100701.92
2022-09-03T02:31:22.224Z,100700.52
2022-09-03T02:33:51.440Z,100706.10
2022-09-03T02:36:27.446Z,100700.41
2022-09-03T02:38:55.575Z,100704.40
2022-09-03T02:41:24.000Z,100702.76
2022-09-03T02:44:03.493Z,100707.81
2022-09-03T02:46:45.024Z,100703.95
2022-09-03T02:49:13.057Z,100703.98
2022-09-03T02:51:43.233Z,100705.90
2022-09-03T02:54:12.276Z,100709.41
2022-09-03T02:56:40.620Z,100709.92
2022-09-03T02:59:09.403Z,100713.05
2022-09-03T03:01:37.864Z,100714.52
2022-09-03T03:04:05.821Z,100714.49
2022-09-03T03:06:33.666Z,100714.50
2022-09-03T03:09:05.384Z,100715.52
2022-09-03T03:11:33.110Z,100720.48
2022-09-03T03:14:00.706Z,100714.23
2022-09-03T03:16:28.588Z,100717.35
2022-09-03T03:18:57.217Z,100719.58
2022-09-03T03:21:24.805Z,100723.07
2022-09-03T03:23:52.498Z,100720.20
2022-09-03T03:26:21.157Z,100717.98
2022-09-03T03:28:49.847Z,100716.31
2022-09-03T03:31:20.023Z,100721.27
2022-09-03T03:33:58.836Z,100724.45
2022-09-03T03:36:29.853Z,100725.13
2022-09-03T03:38:59.555Z,100722.65
2022-09-03T03:41:31.336Z,100721.57
2022-09-03T03:44:02.234Z,100721.66
2022-09-03T03:46:32.803Z,100723.70
2022-09-03T03:49:01.042Z,100726.79
2022-09-03T03:51:28.760Z,100726.79
2022-09-03T03:54:00.137Z,100729.39
2022-09-03T03:56:29.908Z,100726.95
2022-09-03T03:58:59.525Z,100724.35
2022-09-03T04:01:28.613Z,100727.93
2022-09-03T04:03:58.505Z,100724.23
2022-09-03T04:06:28.099Z,100721.99
2022-09-03T04:08:55.859Z,100723.27
2022-09-03T04:11:24.728Z,100723.38
2022-09-03T04:13:53.348Z,100722.55
2022-09-03T04:16:23.618Z,100721.44
2022-09-03T04:18:52.810Z,100725.23
2022-09-03T04:21:28.365Z,100732.48
2022-09-03T04:23:58.037Z,100728.63
2022-09-03T04:26:31.273Z,100731.35
2022-09-03T04:29:01.139Z,100728.95
2022-09-03T04:31:29.377Z,100728.79
2022-09-03T04:33:57.957Z,100727.52
2022-09-03T04:36:28.495Z,100730.29
2022-09-03T04:38:59.417Z,100724.59
2022-09-03T04:41:29.718Z,100729.08
2022-09-03T04:43:58.543Z,100730.38
2022-09-03T04:46:33.690Z,100727.52
2022-09-03T04:49:03.361Z,100730.61
2022-09-03T04:51:31.685Z,100734.17
2022-09-03T04:54:01.727Z,100736.60
2022-09-03T04:56:35.049Z,100737.06
2022-09-03T04:59:06.095Z,100737.50
2022-09-03T05:01:35.606Z,100734.45
2022-09-03T05:04:04.723Z,100734.88
2022-09-03T05:06:33.758Z,100735.50
2022-09-03T05:09:01.716Z,100731.09
2022-09-03T05:11:30.116Z,100733.83
2022-09-03T05:13:59.873Z,100732.08
2022-09-03T05:16:30.169Z,100730.16
2022-09-03T05:19:00.526Z,100727.31
2022-09-03T05:21:29.230Z,100732.70
2022-09-03T05:23:57.543Z,100729.19
2022-09-03T05:26:28.231Z,100731.18
2022-09-03T05:28:58.957Z,100728.73
2022-09-03T05:31:30.092Z,100730.11
2022-09-03T05:34:00.428Z,100730.73
2022-09-03T05:36:31.490Z,100729.11
2022-09-03T05:38:59.561Z,100731.60
2022-09-03T05:41:28.950Z,100735.83
2022-09-03T05:43:59.587Z,100737.70
2022-09-03T05:46:32.876Z,100735.13
2022-09-03T05:49:02.219Z,100734.83
2022-09-03T05:51:31.267Z,100734.08
2022-09-03T05:53:59.492Z,100731.40
2022-09-03T05:56:29.878Z,100728.67
2022-09-03T05:59:05.407Z,100726.39
2022-09-03T06:01:35.406Z,100726.86
2022-09-03T06:04:03.327Z,100730.98
2022-09-03T06:06:33.191Z,100729.05
2022-09-03T06:09:04.056Z,100735.13
2022-09-03T06:11:34.671Z,100733.77
2022-09-03T06:14:05.677Z,100734.30
2022-09-03T06:16:36.036Z,100733.26
2022-09-03T06:19:07.187Z,100737.59
2022-09-03T06:21:36.603Z,100737.20
2022-09-03T06:24:04.348Z,100735.29
2022-09-03T06:26:31.932Z,100736.44
2022-09-03T06:29:00.043Z,100739.10
2022-09-03T06:31:28.106Z,100738.59
2022-09-03T06:33:59.673Z,100742.13
2022-09-03T06:36:30.146Z,100746.98
2022-09-03T06:38:58.510Z,100750.95
2022-09-03T06:41:29.194Z,100752.09
2022-09-03T06:44:02.944Z,100753.22
2022-09-03T06:46:33.073Z,100751.96
2022-09-03T06:49:00.931Z,100753.58
2022-09-03T06:51:31.423Z,100753.73
2022-09-03T06:54:02.114Z,100752.63
2022-09-03T06:56:29.810Z,100747.46
2022-09-03T06:58:59.554Z,100745.99
2022-09-03T07:01:31.273Z,100742.69
2022-09-03T07:04:01.984Z,100740.74
2022-09-03T07:06:38.812Z,100738.01
2022-09-03T07:09:07.355Z,100737.38
2022-09-03T07:11:35.903Z,100736.88
2022-09-03T07:14:05.224Z,100740.64
2022-09-03T07:16:35.999Z,100736.86
2022-09-03T07:19:05.168Z,100737.37
2022-09-03T07:21:36.583Z,100740.23
2022-09-03T07:24:06.039Z,100741.52
2022-09-03T07:26:39.271Z,100745.37
2022-09-03T07:29:07.862Z,100748.15
2022-09-03T07:31:38.320Z,100751.81
2022-09-03T07:34:10.007Z,100748.05
2022-09-03T07:36:41.608Z,100747.03
2022-09-03T07:39:12.368Z,100750.88
2022-09-03T07:41:43.370Z,100745.08
2022-09-03T07:44:16.091Z,100744.05
2022-09-03T07:46:46.050Z,100746.80
2022-09-03T07:49:13.922Z,100749.01
2022-09-03T07:51:41.592Z,100751.02
2022-09-03T07:54:11.196Z,100752.48
2022-09-03T07:56:40.453Z,100755.98
2022-09-03T07:59:08.914Z,100756.59
2022-09-03T08:01:39.173Z,100759.30
2022-09-03T08:04:10.785Z,100757.05
2022-09-03T08:06:39.601Z,100755.50
2022-09-03T08:09:11.205Z,100758.20
2022-09-03T08:11:41.425Z,100754.97
2022-09-03T08:14:11.846Z,100759.45
2022-09-03T08:16:42.536Z,100762.88
2022-09-03T08:19:13.042Z,100760.08
2022-09-03T08:21:44.122Z,100764.64
2022-09-03T08:24:12.547Z,100761.12
2022-09-03T08:26:45.238Z,100764.39
2022-09-03T08:29:14.422Z,100761.48
2022-09-03T08:31:42.948Z,100758.39
2022-09-03T08:34:11.791Z,100761.46
2022-09-03T08:36:43.403Z,100761.44
2022-09-03T08:39:11.472Z,100761.44
2022-09-03T08:42:03.479Z,100761.48
2022-09-03T08:44:56.093Z,100762.67
2022-09-03T08:47:43.748Z,100755.73
2022-09-03T08:50:14.364Z,100755.31
2022-09-03T08:52:50.187Z,100752.70
2022-09-03T08:55:44.767Z,100752.71
2022-09-03T08:58:16.483Z,100753.67
2022-09-03T09:00:48.333Z,100754.48
2022-09-03T09:03:37.948Z,100754.95
2022-09-03T09:06:13.315Z,100750.90
2022-09-03T09:09:00.093Z,100744.27
2022-09-03T09:11:33.654Z,100742.35
2022-09-03T09:14:12.687Z,100742.80
2022-09-03T09:16:49.260Z,100746.08
2022-09-03T09:19:30.627Z,100745.52
2022-09-03T09:22:07.719Z,100747.02
2022-09-03T09:24:53.190Z,100749.48
2022-09-03T09:27:21.226Z,100746.79
2022-09-03T09:29:50.700Z,100748.02
2022-09-03T09:32:21.647Z,100747.48
2022-09-03T09:34:52.547Z,100749.20
2022-09-03T09:37:21.433Z,100746.84
2022-09-03T09:39:57.727Z,100750.69
2022-09-03T09:42:26.260Z,100752.71
2022-09-03T09:44:53.922Z,100752.27
2022-09-03T09:47:34.695Z,100749.06
2022-09-03T09:50:03.678Z,100744.05
2022-09-03T09:52:31.485Z,100742.09
2022-09-03T09:55:09.030Z,100732.59
2022-09-03T09:57:38.664Z,100739.95
2022-09-03T10:00:13.206Z,100739.95
2022-09-03T10:02:54.211Z,100734.83
2022-09-03T10:05:26.593Z,100728.55
2022-09-03T10:07:59.642Z,100731.02
2022-09-03T10:10:29.176Z,100726.95
2022-09-03T10:13:02.817Z,100726.33
2022-09-03T10:15:53.429Z,100725.64
2022-09-03T10:18:42.294Z,100722.00
2022-09-03T10:21:26.275Z,100723.54
2022-09-03T10:24:06.202Z,100725.45
2022-09-03T10:26:36.796Z,100721.30
2022-09-03T10:29:07.034Z,100720.35
2022-09-03T10:31:56.931Z,100717.29
2022-09-03T10:34:49.547Z,100716.20
2022-09-03T10:37:38.632Z,100714.42
2022-09-03T10:40:12.999Z,100715.34
2022-09-03T10:42:45.732Z,100714.32
2022-09-03T10:45:41.159Z,100715.36
2022-09-03T10:48:28.357Z,100711.24
2022-09-03T10:51:06.497Z,100709.55
2022-09-03T10:54:06.055Z,100706.80
2022-09-03T10:57:03.596Z,100707.54
2022-09-03T10:59:55.216Z,100707.81
2022-09-03T11:02:28.760Z,100708.37
2022-09-03T11:05:05.994Z,100708.80
2022-09-03T11:07:58.530Z,100710.72
2022-09-03T11:10:32.819Z,100706.05
2022-09-03T11:13:22.985Z,100704.77
2022-09-03T11:15:55.119Z,100705.77
2022-09-03T11:18:29.201Z,100703.02
2022-09-03T11:21:01.369Z,100700.95
2022-09-03T11:23:33.639Z,100695.84
2022-09-03T11:26:07.102Z,100694.98
2022-09-03T11:28:53.546Z,100690.71
2022-09-03T11:31:57.637Z,100689.52
2022-09-03T11:34:31.868Z,100683.50
2022-09-03T11:37:28.026Z,100683.04
2022-09-03T11:40:03.851Z,100681.77
2022-09-03T11:42:38.986Z,100684.98
2022-09-03T11:45:30.092Z,100683.35
2022-09-03T11:47:58.797Z,100679.17
2022-09-03T11:50:32.216Z,100679.05
2022-09-03T11:53:16.388Z,100678.13
2022-09-03T11:55:54.623Z,100673.12
2022-09-03T11:58:34.602Z,100675.07
2022-09-03T12:01:07.967Z,100671.43
2022-09-03T12:03:42.683Z,100665.59
2022-09-03T12:06:26.807Z,100659.30
2022-09-03T12:09:14.367Z,100662.86
2022-09-03T12:12:10.849Z,100655.43
2022-09-03T12:15:10.433Z,100647.59
2022-09-03T12:18:12.054Z,100646.63
2022-09-03T12:20:40.852Z,100646.64
2022-09-03T12:23:29.353Z,100641.55
2022-09-03T12:26:03.943Z,100638.19
2022-09-03T12:28:36.103Z,100635.23
2022-09-03T12:31:17.555Z,100637.02
2022-09-03T12:33:45.206Z,100636.50
2022-09-03T12:36:14.052Z,100637.05
2022-09-03T12:39:10.070Z,100634.66
2022-09-03T12:41:31.704Z,100633.65
2022-09-03T12:44:00.884Z,100629.04
2022-09-03T12:46:33.730Z,100629.11
2022-09-03T12:52:21.127Z,100630.18
2022-09-03T12:54:59.749Z,100626.05
2022-09-03T12:57:35.303Z,100623.48
2022-09-03T13:00:07.301Z,100619.78
2022-09-03T13:02:57.005Z,100620.79
2022-09-03T13:05:46.926Z,100619.72
2022-09-03T13:08:24.801Z,100614.81
2022-09-03T13:10:58.197Z,100616.49
2022-09-03T13:13:29.373Z,100612.03
2022-09-03T13:16:09.991Z,100612.56
2022-09-03T13:18:54.157Z,100611.13
2022-09-03T13:21:52.803Z,100618.17
2022-09-03T13:24:37.909Z,100618.68
2022-09-03T13:27:28.828Z,100614.05
2022-09-03T13:30:03.043Z,100605.71
2022-09-03T13:32:51.301Z,100605.17
2022-09-03T13:35:29.351Z,100599.73
2022-09-03T13:38:19.048Z,100596.16
2022-09-03T13:41:21.816Z,100594.84
2022-09-03T13:44:08.613Z,100590.34
2022-09-03T13:46:45.407Z,100594.23
2022-09-03T13:49:51.121Z,100586.45
2022-09-03T13:52:42.609Z,100589.77
2022-09-03T13:55:19.494Z,100586.33
2022-09-03T13:58:01.530Z,100586.76
2022-09-03T14:01:01.781Z,100581.95
2022-09-03T14:03:36.086Z,100578.36
2022-09-03T14:06:09.958Z,100570.81
2022-09-03T14:08:55.490Z,100570.02
2022-09-03T14:11:40.820Z,100564.70
2022-09-03T14:14:40.459Z,100563.27
2022-09-03T14:17:19.301Z,100561.98
2022-09-03T14:20:02.385Z,100560.16
2022-09-03T14:22:48.956Z,100562.52
2022-09-03T14:25:23.607Z,100559.55
2022-09-03T14:27:51.958Z,100553.42
2022-09-03T14:30:33.161Z,100550.34
2022-09-03T14:33:39.718Z,100548.44
2022-09-03T14:36:22.928Z,100549.70
2022-09-03T14:39:12.535Z,100548.35
2022-09-03T14:41:59.626Z,100550.52
2022-09-03T14:44:30.984Z,100549.08
2022-09-03T14:47:28.260Z,100549.70
2022-09-03T14:50:19.769Z,100551.98
2022-09-03T14:53:00.175Z,100556.06
2022-09-03T14:55:57.617Z,100555.45
2022-09-03T14:58:34.649Z,100550.03
2022-09-03T15:01:13.295Z,100553.58
2022-09-03T15:04:13.310Z,100554.95
2022-09-03T15:07:12.917Z,100557.72
2022-09-03T15:09:51.839Z,100553.38
2022-09-03T15:12:28.903Z,100554.70
2022-09-03T15:14:59.235Z,100548.90
2022-09-03T15:17:58.908Z,100550.63
2022-09-03T15:20:33.177Z,100548.42
2022-09-03T15:23:23.120Z,100552.05
2022-09-03T15:26:12.556Z,100554.08
2022-09-03T15:29:12.410Z,100555.73
2022-09-03T15:32:04.841Z,100556.91
2022-09-03T15:34:47.795Z,100554.83
2022-09-03T15:37:38.392Z,100554.86
2022-09-03T15:40:21.905Z,100559.52
2022-09-03T15:42:55.322Z,100555.86
2022-09-03T15:45:32.710Z,100559.82
2022-09-03T15:48:19.690Z,100559.10
2022-09-03T15:51:10.460Z,100560.20
2022-09-03T15:54:03.406Z,100565.64
2022-09-03T15:56:47.148Z,100568.20
2022-09-03T15:59:47.284Z,100567.90
2022-09-03T16:02:20.801Z,100565.62
2022-09-03T16:04:55.544Z,100566.25
2022-09-03T16:07:42.218Z,100565.02
2022-09-03T16:10:26.294Z,100565.96
2022-09-03T16:13:26.338Z,100570.63
2022-09-03T16:16:26.458Z,100571.13
2022-09-03T16:19:13.518Z,100573.59
2022-09-03T16:22:00.212Z,100570.83
2022-09-03T16:24:47.330Z,100575.48
2022-09-03T16:27:21.310Z,100578.77
2022-09-03T16:30:12.569Z,100575.70
2022-09-03T16:32:59.168Z,100576.52
2022-09-03T16:35:42.884Z,100576.90
2022-09-03T16:38:17.083Z,100578.11
2022-09-03T16:41:17.264Z,100579.47
2022-09-03T16:44:04.058Z,100577.52
2022-09-03T16:46:50.545Z,100574.75
2022-09-03T16:49:50.160Z,100572.48
2022-09-03T16:52:43.982Z,100573.90
2022-09-03T16:55:31.261Z,100573.02
2022-09-03T16:58:14.799Z,100572.42
2022-09-03T17:00:49.257Z,100569.48
2022-09-03T17:03:26.781Z,100567.98
2022-09-03T17:06:15.855Z,100562.23
2022-09-03T17:09:09.550Z,100565.02
2022-09-03T17:12:04.071Z,100566.44
2022-09-03T17:14:50.643Z,100572.16
2022-09-03T17:17:25.623Z,100576.02
2022-09-03T17:20:14.828Z,100577.55
2022-09-03T17:23:14.479Z,100577.44
2022-09-03T17:26:05.466Z,100579.41
2022-09-03T17:29:00.853Z,100580.77
2022-09-03T17:31:51.602Z,100585.02
2022-09-03T17:34:42.286Z,100584.00
2022-09-03T17:37:36.125Z,100590.84
2022-09-03T17:40:04.614Z,100591.46
2022-09-03T17:42:49.199Z,100592.61
2022-09-03T17:45:33.953Z,100599.69
2022-09-03T17:48:18.845Z,100606.11
2022-09-03T17:51:06.069Z,100607.34
2022-09-03T17:53:57.410Z,100610.25
2022-09-03T17:56:29.628Z,100608.54
2022-09-03T17:59:18.158Z,100609.09
2022-09-03T18:01:58.916Z,100610.66
2022-09-03T18:04:46.401Z,100608.33
2022-09-03T18:07:23.547Z,100612.90
2022-09-03T18:10:01.977Z,100615.52
2022-09-03T18:13:03.507Z,100610.87
2022-09-03T18:15:45.901Z,100613.10
2022-09-03T18:18:33.858Z,100619.18
2022-09-03T18:21:25.440Z,100621.35
2022-09-03T18:24:18.235Z,100618.60
2022-09-03T18:27:11.447Z,100620.77
2022-09-03T18:30:17.164Z,100623.30
2022-09-03T18:33:00.806Z,100629.17
2022-09-03T18:35:45.370Z,100630.73
2022-09-03T18:38:29.089Z,100626.82
2022-09-03T18:41:19.616Z,100629.13
2022-09-03T18:44:03.224Z,100631.26
2022-09-03T18:50:41.955Z,100629.51
2022-09-03T18:53:58.481Z,100631.05
2022-09-03T18:56:45.087Z,100631.23
2022-09-03T18:59:58.610Z,100636.95
2022-09-03T19:03:05.348Z,100633.40
2022-09-03T19:05:51.616Z,100636.30
2022-09-03T19:08:49.060Z,100636.84
2022-09-03T19:11:43.565Z,100639.17
2022-09-03T19:14:41.837Z,100637.12
2022-09-03T19:17:53.950Z,100637.26
2022-09-03T19:20:46.171Z,100639.78
2022-09-03T19:23:30.334Z,100641.08
2022-09-03T19:26:21.530Z,100637.08
2022-09-03T19:29:11.537Z,100636.70
2022-09-03T19:31:55.054Z,100634.79
2022-09-03T19:35:08.620Z,100632.91
2022-09-03T19:38:08.210Z,100631.52
2022-09-03T19:41:04.841Z,100632.02
2022-09-03T19:44:14.494Z,100638.27
2022-09-03T19:47:15.925Z,100643.27
2022-09-03T19:50:14.736Z,100644.55
2022-09-03T19:53:23.008Z,100645.40
2022-09-03T19:56:12.612Z,100645.25
2022-09-03T19:59:03.334Z,100646.50
2022-09-03T20:01:52.749Z,100649.92
2022-09-03T20:04:43.999Z,100655.60
2022-09-03T20:07:26.557Z,100656.70
2022-09-03T20:10:13.730Z,100654.92
2022-09-03T20:12:47.703Z,100655.18
2022-09-03T20:15:15.413Z,100657.27
2022-09-03T20:17:49.148Z,100656.69
2022-09-03T20:20:29.701Z,100657.36
2022-09-03T20:23:12.524Z,100660.31
2022-09-03T20:25:40.084Z,100658.29
2022-09-03T20:28:38.070Z,100662.92
2022-09-03T20:31:39.962Z,100667.60
2022-09-03T20:34:26.736Z,100668.36
2022-09-03T20:37:17.526Z,100670.85
2022-09-03T20:39:58.500Z,100672.75
2022-09-03T20:42:53.536Z,100676.63
2022-09-03T20:45:55.664Z,100677.23
2022-09-03T20:48:49.388Z,100684.64
2022-09-03T20:51:23.097Z,100688.42
2022-09-03T20:53:55.025Z,100693.05
2022-09-03T20:56:29.637Z,100689.04
2022-09-03T20:59:03.436Z,100687.90
2022-09-03T21:01:45.684Z,100687.09
2022-09-03T21:04:33.057Z,100687.95
2022-09-03T21:07:16.301Z,100692.95
2022-09-03T21:09:49.372Z,100692.31
2022-09-03T21:12:53.928Z,100694.52
2022-09-03T21:15:33.905Z,100692.23
2022-09-03T21:18:21.419Z,100694.48
2022-09-03T21:21:05.023Z,100695.88
2022-09-03T21:23:39.755Z,100699.08
2022-09-03T21:26:26.016Z,100700.33
2022-09-03T21:29:00.335Z,100698.67
2022-09-03T21:32:00.002Z,100699.27
2022-09-03T21:34:40.769Z,100704.27
2022-09-03T21:37:13.303Z,100705.13
2022-09-03T21:39:54.629Z,100707.91
2022-09-03T21:42:52.587Z,100706.48
2022-09-03T21:45:46.792Z,100703.27
2022-09-03T21:48:25.264Z,100704.27
2022-09-03T21:50:57.263Z,100702.52
2022-09-03T21:53:41.168Z,100700.13
2022-09-03T21:56:24.697Z,100704.38
2022-09-03T21:59:29.666Z,100703.88
2022-09-03T22:02:12.123Z,100702.69
2022-09-03T22:04:39.757Z,100707.24
2022-09-03T22:07:22.938Z,100703.69
2022-09-03T22:10:12.827Z,100705.88
2022-09-03T22:12:57.676Z,100704.33
2022-09-03T22:15:25.352Z,100703.68
2022-09-03T22:18:15.362Z,100703.71
2022-09-03T22:20:52.608Z,100703.38
2022-09-03T22:23:28.965Z,100701.09
2022-09-03T22:26:12.452Z,100697.75
2022-09-03T22:28:55.965Z,100695.55
2022-09-03T22:31:35.386Z,100696.84
2022-09-03T22:34:09.035Z,100696.87
2022-09-03T22:36:41.547Z,100698.78
2022-09-03T22:39:19.242Z,100705.20
2022-09-03T22:42:02.964Z,100706.55
2022-09-03T22:45:09.352Z,100701.64
2022-09-03T22:47:56.063Z,100700.26
2022-09-03T22:50:42.968Z,100701.45
2022-09-03T22:53:43.589Z,100702.60
2022-09-03T22:56:15.206Z,100699.89
2022-09-03T22:59:14.830Z,100697.29
2022-09-03T23:01:53.079Z,100698.92
2022-09-03T23:04:29.891Z,100697.77
2022-09-03T23:07:03.577Z,100699.22
2022-09-03T23:09:36.957Z,100697.75
2022-09-03T23:12:15.080Z,100700.95
2022-09-03T23:14:51.364Z,100703.52
2022-09-03T23:20:13.057Z,100713.52
2022-09-03T23:22:51.499Z,100711.63
2022-09-03T23:25:26.012Z,100712.25
2022-09-03T23:28:06.596Z,100708.17
2022-09-03T23:30:34.230Z,100710.75
2022-09-03T23:33:02.647Z,100707.55
2022-09-03T23:35:43.482Z,100705.45
2022-09-03T23:38:31.287Z,100711.73
2022-09-03T23:41:06.265Z,100709.99
2022-09-03T23:43:58.775Z,100714.02
2022-09-03T23:47:00.524Z,100709.44
2022-09-03T23:49:35.098Z,100715.89
2022-09-03T23:52:24.842Z,100716.95
2022-09-03T23:55:18.799Z,100715.23
2022-09-03T23:58:01.902Z,100719.27
